sensor_id;sensor_type;location;lat;lon;timestamp;P1;durP1;ratioP1;P2;durP2;ratioP2
32760;SDS011;19126;47.472;7.850;2024-02-21T00:00:22;15.40;;;6.47;;
32760;SDS011;19126;47.472;7.850;2024-02-21T00:02:50;16.75;;;5.65;;
32760;SDS011;19126;47.472;7.850;2024-02-21T00:05:18;12.35;;;5.50;;
32760;SDS011;19126;47.472;7.850;2024-02-21T00:07:45;15.00;;;6.70;;
32760;SDS011;19126;47.472;7.850;2024-02-21T00:10:12;17.80;;;6.20;;
32760;SDS011;19126;47.472;7.850;2024-02-21T00:12:40;10.90;;;5.53;;
32760;SDS011;19126;47.472;7.850;2024-02-21T00:15:07;18.50;;;6.60;;
32760;SDS011;19126;47.472;7.850;2024-02-21T00:17:36;17.73;;;6.90;;
32760;SDS011;19126;47.472;7.850;2024-02-21T00:20:05;19.98;;;6.78;;
32760;SDS011;19126;47.472;7.850;2024-02-21T00:22:33;26.77;;;8.23;;
32760;SDS011;19126;47.472;7.850;2024-02-21T00:25:01;18.08;;;6.82;;
32760;SDS011;19126;47.472;7.850;2024-02-21T00:27:28;11.18;;;6.00;;
32760;SDS011;19126;47.472;7.850;2024-02-21T00:29:56;18.42;;;6.93;;
32760;SDS011;19126;47.472;7.850;2024-02-21T00:32:23;17.15;;;7.43;;
32760;SDS011;19126;47.472;7.850;2024-02-21T00:34:52;18.35;;;6.88;;
32760;SDS011;19126;47.472;7.850;2024-02-21T00:37:19;19.05;;;7.35;;
32760;SDS011;19126;47.472;7.850;2024-02-21T00:39:46;19.85;;;8.15;;
32760;SDS011;19126;47.472;7.850;2024-02-21T00:42:14;16.13;;;5.80;;
32760;SDS011;19126;47.472;7.850;2024-02-21T00:44:41;17.20;;;6.13;;
32760;SDS011;19126;47.472;7.850;2024-02-21T00:47:09;21.77;;;7.30;;
32760;SDS011;19126;47.472;7.850;2024-02-21T00:49:36;11.10;;;5.07;;
32760;SDS011;19126;47.472;7.850;2024-02-21T00:52:05;13.82;;;4.90;;
32760;SDS011;19126;47.472;7.850;2024-02-21T00:54:33;15.68;;;5.65;;
32760;SDS011;19126;47.472;7.850;2024-02-21T00:57:00;14.38;;;6.10;;
32760;SDS011;19126;47.472;7.850;2024-02-21T00:59:27;18.95;;;4.97;;
32760;SDS011;19126;47.472;7.850;2024-02-21T01:01:55;21.45;;;6.30;;
32760;SDS011;19126;47.472;7.850;2024-02-21T01:04:22;16.13;;;5.38;;
32760;SDS011;19126;47.472;7.850;2024-02-21T01:06:49;11.27;;;5.00;;
32760;SDS011;19126;47.472;7.850;2024-02-21T01:09:18;14.02;;;5.50;;
32760;SDS011;19126;47.472;7.850;2024-02-21T01:11:45;8.05;;;4.32;;
32760;SDS011;19126;47.472;7.850;2024-02-21T01:14:12;17.90;;;5.18;;
32760;SDS011;19126;47.472;7.850;2024-02-21T01:16:40;17.60;;;5.57;;
32760;SDS011;19126;47.472;7.850;2024-02-21T01:19:07;12.90;;;5.20;;
32760;SDS011;19126;47.472;7.850;2024-02-21T01:21:34;14.27;;;4.65;;
32760;SDS011;19126;47.472;7.850;2024-02-21T01:24:02;15.20;;;4.95;;
32760;SDS011;19126;47.472;7.850;2024-02-21T01:26:31;13.25;;;5.55;;
32760;SDS011;19126;47.472;7.850;2024-02-21T01:28:59;9.85;;;4.38;;
32760;SDS011;19126;47.472;7.850;2024-02-21T01:31:26;14.73;;;4.20;;
32760;SDS011;19126;47.472;7.850;2024-02-21T01:33:53;9.80;;;4.20;;
32760;SDS011;19126;47.472;7.850;2024-02-21T01:36:20;10.65;;;4.82;;
32760;SDS011;19126;47.472;7.850;2024-02-21T01:38:48;12.05;;;5.28;;
32760;SDS011;19126;47.472;7.850;2024-02-21T01:41:15;14.18;;;5.18;;
32760;SDS011;19126;47.472;7.850;2024-02-21T01:43:44;11.98;;;5.40;;
32760;SDS011;19126;47.472;7.850;2024-02-21T01:46:11;13.05;;;4.47;;
32760;SDS011;19126;47.472;7.850;2024-02-21T01:48:38;10.13;;;4.80;;
32760;SDS011;19126;47.472;7.850;2024-02-21T01:51:06;17.95;;;5.35;;
32760;SDS011;19126;47.472;7.850;2024-02-21T01:53:34;20.38;;;5.07;;
32760;SDS011;19126;47.472;7.850;2024-02-21T01:56:04;13.02;;;4.72;;
32760;SDS011;19126;47.472;7.850;2024-02-21T01:58:33;18.90;;;5.03;;
32760;SDS011;19126;47.472;7.850;2024-02-21T02:01:05;16.00;;;4.43;;
32760;SDS011;19126;47.472;7.850;2024-02-21T02:03:32;14.13;;;5.07;;
32760;SDS011;19126;47.472;7.850;2024-02-21T02:06:00;9.23;;;3.85;;
32760;SDS011;19126;47.472;7.850;2024-02-21T02:08:28;17.88;;;4.38;;
32760;SDS011;19126;47.472;7.850;2024-02-21T02:10:55;13.55;;;5.50;;
32760;SDS011;19126;47.472;7.850;2024-02-21T02:13:22;20.88;;;6.53;;
32760;SDS011;19126;47.472;7.850;2024-02-21T02:15:50;14.02;;;6.00;;
32760;SDS011;19126;47.472;7.850;2024-02-21T02:18:19;11.73;;;5.35;;
32760;SDS011;19126;47.472;7.850;2024-02-21T02:20:47;19.02;;;6.50;;
32760;SDS011;19126;47.472;7.850;2024-02-21T02:23:19;18.67;;;5.47;;
32760;SDS011;19126;47.472;7.850;2024-02-21T02:25:49;11.88;;;5.85;;
32760;SDS011;19126;47.472;7.850;2024-02-21T02:28:18;14.23;;;4.70;;
32760;SDS011;19126;47.472;7.850;2024-02-21T02:30:45;18.02;;;5.15;;
32760;SDS011;19126;47.472;7.850;2024-02-21T02:33:13;16.20;;;5.82;;
32760;SDS011;19126;47.472;7.850;2024-02-21T02:35:42;13.25;;;6.05;;
32760;SDS011;19126;47.472;7.850;2024-02-21T02:38:10;14.48;;;5.22;;
32760;SDS011;19126;47.472;7.850;2024-02-21T02:40:39;10.07;;;4.90;;
32760;SDS011;19126;47.472;7.850;2024-02-21T02:43:07;12.95;;;5.70;;
32760;SDS011;19126;47.472;7.850;2024-02-21T02:45:35;11.57;;;4.68;;
32760;SDS011;19126;47.472;7.850;2024-02-21T02:48:03;21.55;;;4.60;;
32760;SDS011;19126;47.472;7.850;2024-02-21T02:50:31;14.40;;;5.82;;
32760;SDS011;19126;47.472;7.850;2024-02-21T02:52:58;14.73;;;5.43;;
32760;SDS011;19126;47.472;7.850;2024-02-21T02:55:26;14.82;;;5.35;;
32760;SDS011;19126;47.472;7.850;2024-02-21T02:57:54;15.02;;;4.80;;
32760;SDS011;19126;47.472;7.850;2024-02-21T03:00:22;16.88;;;5.82;;
32760;SDS011;19126;47.472;7.850;2024-02-21T03:02:49;15.15;;;4.93;;
32760;SDS011;19126;47.472;7.850;2024-02-21T03:05:17;16.45;;;4.70;;
32760;SDS011;19126;47.472;7.850;2024-02-21T03:07:47;14.70;;;4.65;;
32760;SDS011;19126;47.472;7.850;2024-02-21T03:10:15;10.82;;;4.43;;
32760;SDS011;19126;47.472;7.850;2024-02-21T03:12:42;17.20;;;6.45;;
32760;SDS011;19126;47.472;7.850;2024-02-21T03:15:12;18.02;;;4.97;;
32760;SDS011;19126;47.472;7.850;2024-02-21T03:17:40;15.05;;;5.53;;
32760;SDS011;19126;47.472;7.850;2024-02-21T03:20:07;23.00;;;5.07;;
32760;SDS011;19126;47.472;7.850;2024-02-21T03:22:35;12.07;;;4.85;;
32760;SDS011;19126;47.472;7.850;2024-02-21T03:25:03;10.52;;;4.05;;
32760;SDS011;19126;47.472;7.850;2024-02-21T03:27:32;14.45;;;4.07;;
32760;SDS011;19126;47.472;7.850;2024-02-21T03:29:59;8.52;;;3.70;;
32760;SDS011;19126;47.472;7.850;2024-02-21T03:32:28;15.15;;;4.28;;
32760;SDS011;19126;47.472;7.850;2024-02-21T03:34:55;7.78;;;3.65;;
32760;SDS011;19126;47.472;7.850;2024-02-21T03:37:22;10.82;;;3.90;;
32760;SDS011;19126;47.472;7.850;2024-02-21T03:39:50;9.38;;;3.33;;
32760;SDS011;19126;47.472;7.850;2024-02-21T03:42:17;11.77;;;3.20;;
32760;SDS011;19126;47.472;7.850;2024-02-21T03:44:44;9.75;;;4.18;;
32760;SDS011;19126;47.472;7.850;2024-02-21T03:47:11;13.48;;;3.80;;
32760;SDS011;19126;47.472;7.850;2024-02-21T03:49:40;15.95;;;3.63;;
32760;SDS011;19126;47.472;7.850;2024-02-21T03:52:08;14.70;;;3.75;;
32760;SDS011;19126;47.472;7.850;2024-02-21T03:54:35;10.98;;;3.75;;
32760;SDS011;19126;47.472;7.850;2024-02-21T03:57:02;9.48;;;3.28;;
32760;SDS011;19126;47.472;7.850;2024-02-21T03:59:32;13.18;;;3.55;;
32760;SDS011;19126;47.472;7.850;2024-02-21T04:01:59;10.18;;;3.25;;
32760;SDS011;19126;47.472;7.850;2024-02-21T04:04:29;11.68;;;3.65;;
32760;SDS011;19126;47.472;7.850;2024-02-21T04:06:58;7.60;;;3.13;;
32760;SDS011;19126;47.472;7.850;2024-02-21T04:09:25;12.02;;;4.13;;
32760;SDS011;19126;47.472;7.850;2024-02-21T04:11:52;14.18;;;3.30;;
32760;SDS011;19126;47.472;7.850;2024-02-21T04:14:20;9.95;;;3.42;;
32760;SDS011;19126;47.472;7.850;2024-02-21T04:16:47;17.70;;;3.80;;
32760;SDS011;19126;47.472;7.850;2024-02-21T04:19:14;9.60;;;3.00;;
32760;SDS011;19126;47.472;7.850;2024-02-21T04:21:41;5.40;;;2.90;;
32760;SDS011;19126;47.472;7.850;2024-02-21T04:24:11;8.93;;;3.35;;
32760;SDS011;19126;47.472;7.850;2024-02-21T04:26:38;11.05;;;3.25;;
32760;SDS011;19126;47.472;7.850;2024-02-21T04:29:05;13.23;;;4.35;;
32760;SDS011;19126;47.472;7.850;2024-02-21T04:31:33;12.45;;;3.47;;
32760;SDS011;19126;47.472;7.850;2024-02-21T04:34:00;10.30;;;3.33;;
32760;SDS011;19126;47.472;7.850;2024-02-21T04:36:28;10.88;;;3.42;;
32760;SDS011;19126;47.472;7.850;2024-02-21T04:38:55;11.73;;;3.42;;
32760;SDS011;19126;47.472;7.850;2024-02-21T04:41:24;13.10;;;3.60;;
32760;SDS011;19126;47.472;7.850;2024-02-21T04:43:51;9.82;;;3.85;;
32760;SDS011;19126;47.472;7.850;2024-02-21T04:46:18;11.38;;;3.92;;
32760;SDS011;19126;47.472;7.850;2024-02-21T04:48:45;11.43;;;3.60;;
32760;SDS011;19126;47.472;7.850;2024-02-21T04:51:12;11.50;;;3.60;;
32760;SDS011;19126;47.472;7.850;2024-02-21T04:53:39;8.73;;;4.82;;
32760;SDS011;19126;47.472;7.850;2024-02-21T04:56:06;6.70;;;2.90;;
32760;SDS011;19126;47.472;7.850;2024-02-21T04:58:38;9.18;;;3.13;;
32760;SDS011;19126;47.472;7.850;2024-02-21T05:01:06;16.77;;;3.70;;
32760;SDS011;19126;47.472;7.850;2024-02-21T05:03:33;9.82;;;3.60;;
32760;SDS011;19126;47.472;7.850;2024-02-21T05:06:01;6.85;;;3.20;;
32760;SDS011;19126;47.472;7.850;2024-02-21T05:08:28;15.23;;;3.97;;
32760;SDS011;19126;47.472;7.850;2024-02-21T05:10:55;12.20;;;3.60;;
32760;SDS011;19126;47.472;7.850;2024-02-21T05:13:23;10.90;;;3.83;;
32760;SDS011;19126;47.472;7.850;2024-02-21T05:15:52;9.95;;;3.47;;
32760;SDS011;19126;47.472;7.850;2024-02-21T05:18:19;10.35;;;3.45;;
32760;SDS011;19126;47.472;7.850;2024-02-21T05:20:46;6.70;;;3.10;;
32760;SDS011;19126;47.472;7.850;2024-02-21T05:23:14;14.48;;;4.57;;
32760;SDS011;19126;47.472;7.850;2024-02-21T05:25:41;16.40;;;4.53;;
32760;SDS011;19126;47.472;7.850;2024-02-21T05:28:08;13.02;;;3.67;;
32760;SDS011;19126;47.472;7.850;2024-02-21T05:30:35;17.60;;;5.13;;
32760;SDS011;19126;47.472;7.850;2024-02-21T05:33:07;11.05;;;4.05;;
32760;SDS011;19126;47.472;7.850;2024-02-21T05:35:34;15.20;;;4.63;;
32760;SDS011;19126;47.472;7.850;2024-02-21T05:38:02;12.73;;;4.50;;
32760;SDS011;19126;47.472;7.850;2024-02-21T05:40:32;9.68;;;4.35;;
32760;SDS011;19126;47.472;7.850;2024-02-21T05:42:59;7.30;;;3.72;;
32760;SDS011;19126;47.472;7.850;2024-02-21T05:45:27;9.32;;;4.53;;
32760;SDS011;19126;47.472;7.850;2024-02-21T05:47:54;10.98;;;4.13;;
32760;SDS011;19126;47.472;7.850;2024-02-21T05:50:23;14.35;;;4.28;;
32760;SDS011;19126;47.472;7.850;2024-02-21T05:52:51;9.73;;;4.22;;
32760;SDS011;19126;47.472;7.850;2024-02-21T05:55:20;14.20;;;5.47;;
32760;SDS011;19126;47.472;7.850;2024-02-21T05:57:48;11.50;;;5.32;;
32760;SDS011;19126;47.472;7.850;2024-02-21T06:00:15;17.45;;;5.22;;
32760;SDS011;19126;47.472;7.850;2024-02-21T06:02:43;8.77;;;4.45;;
32760;SDS011;19126;47.472;7.850;2024-02-21T06:05:10;13.93;;;4.75;;
32760;SDS011;19126;47.472;7.850;2024-02-21T06:07:39;8.32;;;3.83;;
32760;SDS011;19126;47.472;7.850;2024-02-21T06:10:07;12.68;;;4.35;;
32760;SDS011;19126;47.472;7.850;2024-02-21T06:12:35;22.50;;;5.05;;
32760;SDS011;19126;47.472;7.850;2024-02-21T06:15:02;9.95;;;5.25;;
32760;SDS011;19126;47.472;7.850;2024-02-21T06:17:30;13.95;;;5.40;;
32760;SDS011;19126;47.472;7.850;2024-02-21T06:19:58;17.92;;;7.53;;
32760;SDS011;19126;47.472;7.850;2024-02-21T06:22:25;20.17;;;7.00;;
32760;SDS011;19126;47.472;7.850;2024-02-21T06:24:53;12.63;;;7.00;;
32760;SDS011;19126;47.472;7.850;2024-02-21T06:27:21;17.60;;;7.80;;
32760;SDS011;19126;47.472;7.850;2024-02-21T06:29:49;17.83;;;7.90;;
32760;SDS011;19126;47.472;7.850;2024-02-21T06:32:17;19.00;;;7.70;;
32760;SDS011;19126;47.472;7.850;2024-02-21T06:34:44;18.15;;;7.53;;
32760;SDS011;19126;47.472;7.850;2024-02-21T06:37:11;18.73;;;7.03;;
32760;SDS011;19126;47.472;7.850;2024-02-21T06:39:39;14.73;;;6.38;;
32760;SDS011;19126;47.472;7.850;2024-02-21T06:42:07;17.00;;;6.38;;
32760;SDS011;19126;47.472;7.850;2024-02-21T06:44:35;15.20;;;6.75;;
32760;SDS011;19126;47.472;7.850;2024-02-21T06:47:05;12.68;;;5.85;;
32760;SDS011;19126;47.472;7.850;2024-02-21T06:49:34;12.73;;;6.32;;
32760;SDS011;19126;47.472;7.850;2024-02-21T06:52:03;16.13;;;7.43;;
32760;SDS011;19126;47.472;7.850;2024-02-21T06:54:31;20.98;;;7.75;;
32760;SDS011;19126;47.472;7.850;2024-02-21T06:56:58;15.48;;;7.90;;
32760;SDS011;19126;47.472;7.850;2024-02-21T06:59:27;20.65;;;8.57;;
32760;SDS011;19126;47.472;7.850;2024-02-21T07:01:54;29.70;;;8.13;;
32760;SDS011;19126;47.472;7.850;2024-02-21T07:04:21;27.20;;;8.50;;
32760;SDS011;19126;47.472;7.850;2024-02-21T07:06:49;16.30;;;7.20;;
32760;SDS011;19126;47.472;7.850;2024-02-21T07:09:16;16.45;;;7.45;;
32760;SDS011;19126;47.472;7.850;2024-02-21T07:11:43;16.02;;;7.00;;
32760;SDS011;19126;47.472;7.850;2024-02-21T07:14:11;14.05;;;6.63;;
32760;SDS011;19126;47.472;7.850;2024-02-21T07:16:39;13.05;;;6.68;;
32760;SDS011;19126;47.472;7.850;2024-02-21T07:19:07;17.85;;;7.25;;
32760;SDS011;19126;47.472;7.850;2024-02-21T07:21:37;19.45;;;7.25;;
32760;SDS011;19126;47.472;7.850;2024-02-21T07:24:06;16.30;;;6.90;;
32760;SDS011;19126;47.472;7.850;2024-02-21T07:26:34;20.42;;;8.02;;
32760;SDS011;19126;47.472;7.850;2024-02-21T07:29:03;18.13;;;8.25;;
32760;SDS011;19126;47.472;7.850;2024-02-21T07:31:31;22.05;;;6.90;;
32760;SDS011;19126;47.472;7.850;2024-02-21T07:34:05;16.63;;;7.05;;
32760;SDS011;19126;47.472;7.850;2024-02-21T07:36:33;17.60;;;7.40;;
32760;SDS011;19126;47.472;7.850;2024-02-21T07:39:00;15.13;;;6.30;;
32760;SDS011;19126;47.472;7.850;2024-02-21T07:41:28;17.23;;;6.40;;
32760;SDS011;19126;47.472;7.850;2024-02-21T07:43:55;19.73;;;6.45;;
32760;SDS011;19126;47.472;7.850;2024-02-21T07:46:23;20.98;;;8.43;;
32760;SDS011;19126;47.472;7.850;2024-02-21T07:48:50;14.55;;;6.93;;
32760;SDS011;19126;47.472;7.850;2024-02-21T07:51:19;13.88;;;6.88;;
32760;SDS011;19126;47.472;7.850;2024-02-21T07:53:46;14.45;;;7.00;;
32760;SDS011;19126;47.472;7.850;2024-02-21T07:56:13;17.27;;;6.88;;
32760;SDS011;19126;47.472;7.850;2024-02-21T07:58:42;25.10;;;7.78;;
32760;SDS011;19126;47.472;7.850;2024-02-21T08:01:09;15.80;;;7.78;;
32760;SDS011;19126;47.472;7.850;2024-02-21T08:03:37;20.50;;;7.60;;
32760;SDS011;19126;47.472;7.850;2024-02-21T08:06:04;18.77;;;7.43;;
32760;SDS011;19126;47.472;7.850;2024-02-21T08:08:39;18.10;;;8.18;;
32760;SDS011;19126;47.472;7.850;2024-02-21T08:11:06;17.38;;;7.20;;
32760;SDS011;19126;47.472;7.850;2024-02-21T08:13:33;18.50;;;7.80;;
32760;SDS011;19126;47.472;7.850;2024-02-21T08:16:01;17.67;;;6.93;;
32760;SDS011;19126;47.472;7.850;2024-02-21T08:18:28;18.92;;;8.98;;
32760;SDS011;19126;47.472;7.850;2024-02-21T08:20:55;18.70;;;8.85;;
32760;SDS011;19126;47.472;7.850;2024-02-21T08:23:23;22.23;;;7.80;;
32760;SDS011;19126;47.472;7.850;2024-02-21T08:25:52;22.27;;;7.85;;
32760;SDS011;19126;47.472;7.850;2024-02-21T08:28:21;19.30;;;7.50;;
32760;SDS011;19126;47.472;7.850;2024-02-21T08:30:50;20.80;;;7.72;;
32760;SDS011;19126;47.472;7.850;2024-02-21T08:33:17;24.33;;;8.48;;
32760;SDS011;19126;47.472;7.850;2024-02-21T08:35:49;19.40;;;7.53;;
32760;SDS011;19126;47.472;7.850;2024-02-21T08:38:16;25.48;;;8.80;;
32760;SDS011;19126;47.472;7.850;2024-02-21T08:40:44;28.90;;;8.70;;
32760;SDS011;19126;47.472;7.850;2024-02-21T08:43:12;15.35;;;6.93;;
32760;SDS011;19126;47.472;7.850;2024-02-21T08:45:40;24.65;;;7.55;;
32760;SDS011;19126;47.472;7.850;2024-02-21T08:48:07;17.55;;;6.55;;
32760;SDS011;19126;47.472;7.850;2024-02-21T08:50:34;20.27;;;6.03;;
32760;SDS011;19126;47.472;7.850;2024-02-21T08:53:01;15.20;;;6.18;;
32760;SDS011;19126;47.472;7.850;2024-02-21T08:55:29;16.35;;;6.40;;
32760;SDS011;19126;47.472;7.850;2024-02-21T08:57:56;14.55;;;7.57;;
32760;SDS011;19126;47.472;7.850;2024-02-21T09:00:25;15.63;;;5.80;;
32760;SDS011;19126;47.472;7.850;2024-02-21T09:02:52;18.27;;;6.72;;
32760;SDS011;19126;47.472;7.850;2024-02-21T09:05:21;15.68;;;6.85;;
32760;SDS011;19126;47.472;7.850;2024-02-21T09:07:49;12.45;;;6.68;;
32760;SDS011;19126;47.472;7.850;2024-02-21T09:10:16;11.25;;;6.45;;
32760;SDS011;19126;47.472;7.850;2024-02-21T09:12:44;14.10;;;6.35;;
32760;SDS011;19126;47.472;7.850;2024-02-21T09:15:12;10.93;;;4.82;;
32760;SDS011;19126;47.472;7.850;2024-02-21T09:17:42;8.48;;;3.90;;
32760;SDS011;19126;47.472;7.850;2024-02-21T09:20:09;11.10;;;4.18;;
32760;SDS011;19126;47.472;7.850;2024-02-21T09:22:41;12.40;;;4.53;;
32760;SDS011;19126;47.472;7.850;2024-02-21T09:25:08;13.98;;;4.78;;
32760;SDS011;19126;47.472;7.850;2024-02-21T09:27:37;11.75;;;4.93;;
32760;SDS011;19126;47.472;7.850;2024-02-21T09:30:05;12.32;;;4.68;;
32760;SDS011;19126;47.472;7.850;2024-02-21T09:32:33;11.95;;;4.68;;
32760;SDS011;19126;47.472;7.850;2024-02-21T09:35:02;9.55;;;4.53;;
32760;SDS011;19126;47.472;7.850;2024-02-21T09:37:31;11.27;;;4.47;;
32760;SDS011;19126;47.472;7.850;2024-02-21T09:39:58;11.75;;;5.38;;
32760;SDS011;19126;47.472;7.850;2024-02-21T09:42:29;10.95;;;4.40;;
32760;SDS011;19126;47.472;7.850;2024-02-21T09:45:07;11.25;;;4.95;;
32760;SDS011;19126;47.472;7.850;2024-02-21T09:47:43;11.90;;;4.90;;
32760;SDS011;19126;47.472;7.850;2024-02-21T09:50:28;10.52;;;4.32;;
32760;SDS011;19126;47.472;7.850;2024-02-21T09:52:57;12.10;;;4.53;;
32760;SDS011;19126;47.472;7.850;2024-02-21T09:55:27;16.10;;;4.82;;
32760;SDS011;19126;47.472;7.850;2024-02-21T09:57:54;11.85;;;4.60;;
32760;SDS011;19126;47.472;7.850;2024-02-21T10:00:24;9.63;;;4.45;;
32760;SDS011;19126;47.472;7.850;2024-02-21T10:02:52;14.38;;;4.22;;
32760;SDS011;19126;47.472;7.850;2024-02-21T10:05:20;9.30;;;3.95;;
32760;SDS011;19126;47.472;7.850;2024-02-21T10:07:51;9.88;;;4.13;;
32760;SDS011;19126;47.472;7.850;2024-02-21T10:10:18;9.80;;;5.43;;
32760;SDS011;19126;47.472;7.850;2024-02-21T10:12:50;15.45;;;4.80;;
32760;SDS011;19126;47.472;7.850;2024-02-21T10:15:20;10.13;;;4.43;;
32760;SDS011;19126;47.472;7.850;2024-02-21T10:17:49;7.53;;;3.63;;
32760;SDS011;19126;47.472;7.850;2024-02-21T10:20:16;16.65;;;5.15;;
32760;SDS011;19126;47.472;7.850;2024-02-21T10:22:43;12.30;;;4.53;;
32760;SDS011;19126;47.472;7.850;2024-02-21T10:25:12;12.75;;;4.65;;
32760;SDS011;19126;47.472;7.850;2024-02-21T10:27:40;8.05;;;5.07;;
32760;SDS011;19126;47.472;7.850;2024-02-21T10:30:12;10.68;;;4.28;;
32760;SDS011;19126;47.472;7.850;2024-02-21T10:32:48;13.43;;;4.05;;
32760;SDS011;19126;47.472;7.850;2024-02-21T10:35:25;12.88;;;3.70;;
32760;SDS011;19126;47.472;7.850;2024-02-21T10:37:54;11.82;;;4.90;;
32760;SDS011;19126;47.472;7.850;2024-02-21T10:40:24;10.75;;;4.43;;
32760;SDS011;19126;47.472;7.850;2024-02-21T10:42:56;9.85;;;3.60;;
32760;SDS011;19126;47.472;7.850;2024-02-21T10:45:29;8.30;;;3.63;;
32760;SDS011;19126;47.472;7.850;2024-02-21T10:48:01;8.52;;;3.67;;
32760;SDS011;19126;47.472;7.850;2024-02-21T10:50:53;10.20;;;3.85;;
32760;SDS011;19126;47.472;7.850;2024-02-21T10:53:27;11.77;;;3.22;;
32760;SDS011;19126;47.472;7.850;2024-02-21T10:56:06;11.80;;;3.83;;
32760;SDS011;19126;47.472;7.850;2024-02-21T10:58:49;5.00;;;3.00;;
32760;SDS011;19126;47.472;7.850;2024-02-21T11:01:17;6.72;;;2.80;;
32760;SDS011;19126;47.472;7.850;2024-02-21T11:03:45;6.55;;;3.10;;
32760;SDS011;19126;47.472;7.850;2024-02-21T11:06:16;8.88;;;2.78;;
32760;SDS011;19126;47.472;7.850;2024-02-21T11:08:46;6.10;;;2.95;;
32760;SDS011;19126;47.472;7.850;2024-02-21T11:11:16;9.02;;;3.22;;
32760;SDS011;19126;47.472;7.850;2024-02-21T11:13:45;7.10;;;3.00;;
32760;SDS011;19126;47.472;7.850;2024-02-21T11:16:21;13.40;;;3.63;;
32760;SDS011;19126;47.472;7.850;2024-02-21T11:18:49;11.15;;;3.88;;
32760;SDS011;19126;47.472;7.850;2024-02-21T11:21:16;5.88;;;3.08;;
32760;SDS011;19126;47.472;7.850;2024-02-21T11:23:43;10.00;;;3.40;;
32760;SDS011;19126;47.472;7.850;2024-02-21T11:26:24;9.48;;;3.83;;
32760;SDS011;19126;47.472;7.850;2024-02-21T11:28:56;9.13;;;3.67;;
32760;SDS011;19126;47.472;7.850;2024-02-21T11:31:25;8.27;;;2.80;;
32760;SDS011;19126;47.472;7.850;2024-02-21T11:33:53;9.63;;;3.30;;
32760;SDS011;19126;47.472;7.850;2024-02-21T11:36:25;9.90;;;3.70;;
32760;SDS011;19126;47.472;7.850;2024-02-21T11:38:53;8.87;;;3.30;;
32760;SDS011;19126;47.472;7.850;2024-02-21T11:41:20;6.97;;;3.65;;
32760;SDS011;19126;47.472;7.850;2024-02-21T11:43:49;8.15;;;2.95;;
32760;SDS011;19126;47.472;7.850;2024-02-21T11:46:17;7.85;;;2.80;;
32760;SDS011;19126;47.472;7.850;2024-02-21T11:48:44;9.13;;;3.60;;
32760;SDS011;19126;47.472;7.850;2024-02-21T11:51:20;7.30;;;3.58;;
32760;SDS011;19126;47.472;7.850;2024-02-21T11:53:51;12.90;;;3.17;;
32760;SDS011;19126;47.472;7.850;2024-02-21T11:56:19;4.68;;;2.80;;
32760;SDS011;19126;47.472;7.850;2024-02-21T11:58:48;9.65;;;3.25;;
32760;SDS011;19126;47.472;7.850;2024-02-21T12:01:16;7.70;;;2.80;;
32760;SDS011;19126;47.472;7.850;2024-02-21T12:03:44;7.28;;;2.80;;
32760;SDS011;19126;47.472;7.850;2024-02-21T12:06:15;12.27;;;2.83;;
32760;SDS011;19126;47.472;7.850;2024-02-21T12:08:46;11.43;;;3.35;;
32760;SDS011;19126;47.472;7.850;2024-02-21T12:11:18;5.38;;;3.40;;
32760;SDS011;19126;47.472;7.850;2024-02-21T12:13:47;6.60;;;3.00;;
32760;SDS011;19126;47.472;7.850;2024-02-21T12:16:27;10.07;;;3.30;;
32760;SDS011;19126;47.472;7.850;2024-02-21T12:18:55;10.13;;;3.53;;
32760;SDS011;19126;47.472;7.850;2024-02-21T12:21:26;10.07;;;3.33;;
32760;SDS011;19126;47.472;7.850;2024-02-21T12:23:55;7.20;;;2.72;;
32760;SDS011;19126;47.472;7.850;2024-02-21T12:26:22;8.15;;;2.60;;
32760;SDS011;19126;47.472;7.850;2024-02-21T12:28:50;6.28;;;3.00;;
32760;SDS011;19126;47.472;7.850;2024-02-21T12:31:19;6.45;;;3.10;;
32760;SDS011;19126;47.472;7.850;2024-02-21T12:33:47;7.55;;;3.00;;
32760;SDS011;19126;47.472;7.850;2024-02-21T12:36:14;5.18;;;3.13;;
32760;SDS011;19126;47.472;7.850;2024-02-21T12:38:41;6.57;;;2.90;;
32760;SDS011;19126;47.472;7.850;2024-02-21T12:41:09;5.85;;;2.88;;
32760;SDS011;19126;47.472;7.850;2024-02-21T12:43:38;5.68;;;2.75;;
32760;SDS011;19126;47.472;7.850;2024-02-21T12:46:05;10.73;;;3.13;;
32760;SDS011;19126;47.472;7.850;2024-02-21T12:48:35;7.95;;;3.22;;
32760;SDS011;19126;47.472;7.850;2024-02-21T12:51:02;7.07;;;2.90;;
32760;SDS011;19126;47.472;7.850;2024-02-21T12:53:32;11.70;;;3.45;;
32760;SDS011;19126;47.472;7.850;2024-02-21T12:55:59;16.23;;;4.25;;
32760;SDS011;19126;47.472;7.850;2024-02-21T12:58:26;7.38;;;2.80;;
32760;SDS011;19126;47.472;7.850;2024-02-21T13:00:56;6.82;;;2.92;;
32760;SDS011;19126;47.472;7.850;2024-02-21T13:03:24;5.90;;;2.40;;
32760;SDS011;19126;47.472;7.850;2024-02-21T13:05:53;4.70;;;2.60;;
32760;SDS011;19126;47.472;7.850;2024-02-21T13:08:20;5.35;;;2.42;;
32760;SDS011;19126;47.472;7.850;2024-02-21T13:10:48;6.22;;;2.38;;
32760;SDS011;19126;47.472;7.850;2024-02-21T13:13:15;7.60;;;1.88;;
32760;SDS011;19126;47.472;7.850;2024-02-21T13:15:44;10.85;;;2.35;;
32760;SDS011;19126;47.472;7.850;2024-02-21T13:18:12;4.00;;;1.80;;
32760;SDS011;19126;47.472;7.850;2024-02-21T13:20:39;4.72;;;2.22;;
32760;SDS011;19126;47.472;7.850;2024-02-21T13:23:08;3.90;;;2.20;;
32760;SDS011;19126;47.472;7.850;2024-02-21T13:25:35;5.00;;;1.95;;
32760;SDS011;19126;47.472;7.850;2024-02-21T13:28:03;10.48;;;2.58;;
32760;SDS011;19126;47.472;7.850;2024-02-21T13:30:30;4.85;;;2.13;;
32760;SDS011;19126;47.472;7.850;2024-02-21T13:32:58;8.30;;;3.03;;
32760;SDS011;19126;47.472;7.850;2024-02-21T13:35:25;4.95;;;2.88;;
32760;SDS011;19126;47.472;7.850;2024-02-21T13:37:53;5.85;;;3.35;;
32760;SDS011;19126;47.472;7.850;2024-02-21T13:40:22;9.73;;;3.47;;
32760;SDS011;19126;47.472;7.850;2024-02-21T13:42:50;6.13;;;3.15;;
32760;SDS011;19126;47.472;7.850;2024-02-21T13:45:20;5.97;;;2.55;;
32760;SDS011;19126;47.472;7.850;2024-02-21T13:47:47;4.78;;;2.75;;
32760;SDS011;19126;47.472;7.850;2024-02-21T13:50:15;8.65;;;2.70;;
32760;SDS011;19126;47.472;7.850;2024-02-21T13:52:43;5.68;;;2.50;;
32760;SDS011;19126;47.472;7.850;2024-02-21T13:55:11;4.57;;;3.05;;
32760;SDS011;19126;47.472;7.850;2024-02-21T13:57:40;5.38;;;2.47;;
32760;SDS011;19126;47.472;7.850;2024-02-21T14:00:08;5.88;;;2.38;;
32760;SDS011;19126;47.472;7.850;2024-02-21T14:02:36;8.30;;;2.95;;
32760;SDS011;19126;47.472;7.850;2024-02-21T14:05:04;4.68;;;2.63;;
32760;SDS011;19126;47.472;7.850;2024-02-21T14:07:32;8.32;;;3.15;;
32760;SDS011;19126;47.472;7.850;2024-02-21T14:09:59;8.38;;;3.25;;
32760;SDS011;19126;47.472;7.850;2024-02-21T14:12:26;5.82;;;2.95;;
32760;SDS011;19126;47.472;7.850;2024-02-21T14:14:55;5.78;;;2.83;;
32760;SDS011;19126;47.472;7.850;2024-02-21T14:17:23;11.48;;;3.47;;
32760;SDS011;19126;47.472;7.850;2024-02-21T14:19:50;15.32;;;3.33;;
32760;SDS011;19126;47.472;7.850;2024-02-21T14:22:18;7.75;;;2.58;;
32760;SDS011;19126;47.472;7.850;2024-02-21T14:24:45;5.40;;;2.67;;
32760;SDS011;19126;47.472;7.850;2024-02-21T14:27:12;8.15;;;2.90;;
32760;SDS011;19126;47.472;7.850;2024-02-21T14:29:39;4.45;;;2.63;;
32760;SDS011;19126;47.472;7.850;2024-02-21T14:32:09;8.90;;;2.72;;
32760;SDS011;19126;47.472;7.850;2024-02-21T14:37:06;7.38;;;2.80;;
32760;SDS011;19126;47.472;7.850;2024-02-21T14:39:34;7.10;;;3.13;;
32760;SDS011;19126;47.472;7.850;2024-02-21T14:42:01;5.45;;;2.53;;
32760;SDS011;19126;47.472;7.850;2024-02-21T14:44:28;5.53;;;2.55;;
32760;SDS011;19126;47.472;7.850;2024-02-21T14:46:55;5.88;;;3.35;;